Whitelaw, Canada
Current Conditions -  °F | °C
As of 10:00 AM on Friday 24 Oct 2014 (Local Time) from CYPE Reporting Station
Broken Clouds Broken Clouds  
Wind Chill: 27°   Ceiling: 4000
Heat Index: 32°   Visibility: 15mi
Dew Point: 32°   Wind: 5mph
Humidity: 100%   Direction: 210°SSW
Pressure: 29.77"   Gusts: NA
Location:  56.1°N, 118.08°W
Report Text: CYPE 241600Z 21004KT 15SM FEW005 BKN040 00/M00 A2977 RMK SF1SC6 SLP108
Loading
Personal Weather Stations






























Interactive Weather Map
Tropical Storm Tracking
New forecast layout! Learn more

10-Day Weather Forecast

Advertisements
Track Severe Weather on mobile